createdAt,value
2024-05-09T00:00:18.190Z,95.85
2024-05-09T00:01:24.069Z,96.12
2024-05-09T00:02:25.930Z,95.96
2024-05-09T00:03:27.722Z,96.06
2024-05-09T00:04:29.548Z,96.19
2024-05-09T00:05:31.560Z,96.46
2024-05-09T00:06:33.304Z,96.07
2024-05-09T00:07:35.010Z,96.43
2024-05-09T00:08:36.781Z,96.49
2024-05-09T00:09:38.479Z,96.68
2024-05-09T00:10:41.136Z,96.66
2024-05-09T00:11:43.450Z,96.72
2024-05-09T00:12:45.218Z,96.78
2024-05-09T00:13:47.439Z,96.55
2024-05-09T00:14:49.190Z,96.29
2024-05-09T00:15:50.937Z,96.02
2024-05-09T00:16:52.791Z,96.41
2024-05-09T00:17:54.832Z,96.22
2024-05-09T00:18:56.674Z,96.18
2024-05-09T00:19:58.531Z,96.43
2024-05-09T00:21:00.494Z,96.30
2024-05-09T00:22:02.434Z,96.40
2024-05-09T00:23:04.331Z,96.57
2024-05-09T00:24:06.220Z,96.48
2024-05-09T00:25:07.951Z,96.26
2024-05-09T00:26:09.735Z,96.13
2024-05-09T00:27:13.317Z,95.87
2024-05-09T00:28:15.244Z,95.98
2024-05-09T00:29:16.959Z,95.98
2024-05-09T00:30:27.757Z,96.30
2024-05-09T00:31:34.411Z,95.92
2024-05-09T00:32:36.386Z,95.39
2024-05-09T00:33:38.288Z,94.97
2024-05-09T00:34:40.111Z,94.55
2024-05-09T00:35:42.005Z,94.13
2024-05-09T00:36:43.772Z,94.17
2024-05-09T00:37:45.455Z,94.28
2024-05-09T00:38:47.229Z,95.02
2024-05-09T00:39:48.928Z,95.86
2024-05-09T00:40:50.719Z,97.63
2024-05-09T00:41:52.520Z,98.91
2024-05-09T00:42:54.251Z,99.93
2024-05-09T00:43:55.955Z,100.00
2024-05-09T00:44:57.707Z,100.00
2024-05-09T00:45:59.762Z,100.00
2024-05-09T00:47:01.595Z,100.00
2024-05-09T00:48:05.606Z,99.98
2024-05-09T00:49:08.727Z,99.70
2024-05-09T00:50:15.965Z,98.40
2024-05-09T00:51:24.311Z,97.65
2024-05-09T00:52:27.533Z,97.22
2024-05-09T00:53:29.590Z,96.73
2024-05-09T00:54:31.582Z,97.37
2024-05-09T00:55:34.907Z,96.67
2024-05-09T00:56:36.722Z,96.21
2024-05-09T00:57:38.673Z,95.58
2024-05-09T00:58:40.656Z,95.50
2024-05-09T00:59:42.603Z,96.12
2024-05-09T01:00:44.748Z,95.80
2024-05-09T01:01:47.335Z,95.32
2024-05-09T01:02:49.162Z,95.50
2024-05-09T01:03:51.443Z,95.08
2024-05-09T01:04:53.539Z,95.61
2024-05-09T01:05:55.552Z,95.91
2024-05-09T01:06:57.508Z,96.73
2024-05-09T01:07:59.279Z,97.55
2024-05-09T01:09:01.119Z,98.53
2024-05-09T01:10:03.252Z,99.57
2024-05-09T01:11:07.240Z,99.79
2024-05-09T01:12:09.228Z,99.90
2024-05-09T01:13:11.212Z,99.76
2024-05-09T01:14:13.054Z,99.56
2024-05-09T01:15:14.922Z,99.34
2024-05-09T01:16:16.635Z,98.90
2024-05-09T01:17:18.769Z,99.64
2024-05-09T01:18:20.753Z,99.60
2024-05-09T01:19:33.102Z,99.46
2024-05-09T01:21:41.238Z,99.26
2024-05-09T01:22:44.534Z,99.12
2024-05-09T01:23:46.297Z,99.40
2024-05-09T01:24:47.981Z,99.37
2024-05-09T01:25:49.728Z,99.54
2024-05-09T01:26:51.581Z,100.00
2024-05-09T01:27:53.296Z,100.00
2024-05-09T01:28:55.134Z,100.00
2024-05-09T01:29:56.850Z,100.00
2024-05-09T01:30:58.551Z,100.00
2024-05-09T01:32:00.316Z,100.00
2024-05-09T01:33:02.381Z,100.00
2024-05-09T01:34:04.389Z,100.00
2024-05-09T01:35:06.464Z,100.00
2024-05-09T01:36:08.669Z,100.00
2024-05-09T01:37:10.437Z,100.00
2024-05-09T01:38:12.275Z,100.00
2024-05-09T01:39:14.110Z,100.00
2024-05-09T01:40:21.977Z,100.00
2024-05-09T01:41:26.708Z,100.00
2024-05-09T01:42:28.526Z,100.00
2024-05-09T01:43:30.244Z,100.00
2024-05-09T01:44:31.996Z,100.00
2024-05-09T01:45:33.712Z,100.00
2024-05-09T01:46:35.456Z,100.00
2024-05-09T01:47:37.455Z,100.00
2024-05-09T01:48:39.369Z,100.00
2024-05-09T01:49:41.173Z,100.00
2024-05-09T01:50:43.625Z,100.00
2024-05-09T01:51:45.595Z,100.00
2024-05-09T01:52:47.334Z,100.00
2024-05-09T01:53:49.248Z,100.00
2024-05-09T01:54:51.117Z,100.00
2024-05-09T01:55:52.912Z,100.00
2024-05-09T01:56:54.591Z,100.00
2024-05-09T01:57:56.294Z,100.00
2024-05-09T01:58:58.089Z,100.00
2024-05-09T01:59:59.888Z,100.00
2024-05-09T02:01:02.080Z,100.00
2024-05-09T02:02:04.262Z,100.00
2024-05-09T02:03:09.309Z,100.00
2024-05-09T02:04:11.670Z,100.00
2024-05-09T02:05:13.639Z,100.00
2024-05-09T02:06:15.444Z,100.00
2024-05-09T02:07:17.791Z,100.00
2024-05-09T02:08:22.060Z,100.00
2024-05-09T02:09:23.929Z,100.00
2024-05-09T02:10:32.066Z,100.00
2024-05-09T02:11:44.061Z,100.00
2024-05-09T02:12:45.801Z,100.00
2024-05-09T02:13:47.511Z,100.00
2024-05-09T02:14:49.257Z,100.00
2024-05-09T02:15:51.093Z,100.00
2024-05-09T02:16:52.777Z,100.00
2024-05-09T02:17:54.756Z,100.00
2024-05-09T02:18:56.761Z,100.00
2024-05-09T02:19:58.513Z,100.00
2024-05-09T02:21:00.497Z,100.00
2024-05-09T02:22:02.335Z,100.00
2024-05-09T02:23:05.299Z,100.00
2024-05-09T02:24:07.460Z,100.00
2024-05-09T02:25:09.206Z,100.00
2024-05-09T02:26:10.976Z,100.00
2024-05-09T02:27:12.723Z,100.00
2024-05-09T02:28:14.442Z,100.00
2024-05-09T02:29:16.200Z,100.00
2024-05-09T02:30:26.222Z,100.00
2024-05-09T02:31:37.519Z,100.00
2024-05-09T02:32:39.473Z,100.00
2024-05-09T02:33:41.403Z,100.00
2024-05-09T02:34:43.218Z,100.00
2024-05-09T02:35:44.968Z,100.00
2024-05-09T02:36:46.793Z,100.00
2024-05-09T02:37:48.540Z,100.00
2024-05-09T02:38:50.329Z,100.00
2024-05-09T02:39:52.102Z,100.00
2024-05-09T02:40:53.858Z,100.00
2024-05-09T02:41:55.579Z,100.00
2024-05-09T02:42:57.287Z,100.00
2024-05-09T02:43:59.081Z,100.00
2024-05-09T02:45:00.895Z,100.00
2024-05-09T02:46:02.585Z,100.00
2024-05-09T02:47:04.492Z,100.00
2024-05-09T02:48:07.347Z,100.00
2024-05-09T02:49:09.314Z,100.00
2024-05-09T02:51:15.092Z,100.00
2024-05-09T02:52:18.341Z,100.00
2024-05-09T02:53:20.189Z,100.00
2024-05-09T02:54:21.946Z,100.00
2024-05-09T02:55:23.656Z,100.00
2024-05-09T02:56:25.447Z,100.00
2024-05-09T02:57:27.221Z,100.00
2024-05-09T02:58:28.939Z,100.00
2024-05-09T02:59:30.708Z,100.00
2024-05-09T03:00:38.557Z,100.00
2024-05-09T03:01:43.019Z,100.00
2024-05-09T03:02:45.152Z,100.00
2024-05-09T03:03:47.160Z,100.00
2024-05-09T03:04:49.161Z,100.00
2024-05-09T03:05:51.073Z,100.00
2024-05-09T03:06:52.889Z,100.00
2024-05-09T03:07:54.651Z,100.00
2024-05-09T03:08:56.376Z,100.00
2024-05-09T03:09:58.097Z,100.00
2024-05-09T03:10:59.808Z,100.00
2024-05-09T03:12:01.734Z,100.00
2024-05-09T03:13:11.894Z,100.00
2024-05-09T03:14:18.336Z,100.00
2024-05-09T03:15:20.205Z,100.00
2024-05-09T03:16:21.916Z,100.00
2024-05-09T03:17:23.823Z,100.00
2024-05-09T03:18:25.771Z,100.00
2024-05-09T03:19:27.648Z,100.00
2024-05-09T03:20:34.166Z,100.00
2024-05-09T03:21:40.655Z,100.00
2024-05-09T03:22:42.404Z,100.00
2024-05-09T03:23:44.269Z,100.00
2024-05-09T03:24:46.081Z,100.00
2024-05-09T03:25:48.100Z,100.00
2024-05-09T03:26:49.838Z,100.00
2024-05-09T03:27:52.469Z,100.00
2024-05-09T03:28:54.218Z,100.00
2024-05-09T03:29:55.960Z,100.00
2024-05-09T03:30:57.663Z,100.00
2024-05-09T03:32:00.281Z,100.00
2024-05-09T03:33:02.262Z,100.00
2024-05-09T03:34:04.344Z,100.00
2024-05-09T03:35:06.829Z,100.00
2024-05-09T03:36:11.078Z,100.00
2024-05-09T03:37:14.044Z,100.00
2024-05-09T03:38:15.940Z,100.00
2024-05-09T03:39:17.788Z,100.00
2024-05-09T03:40:23.702Z,100.00
2024-05-09T03:41:28.236Z,100.00
2024-05-09T03:42:30.005Z,100.00
2024-05-09T03:43:31.711Z,100.00
2024-05-09T03:44:33.462Z,100.00
2024-05-09T03:45:35.222Z,100.00
2024-05-09T03:46:40.178Z,100.00
2024-05-09T03:47:42.336Z,100.00
2024-05-09T03:48:44.400Z,100.00
2024-05-09T03:49:46.253Z,100.00
2024-05-09T03:50:48.482Z,100.00
2024-05-09T03:51:50.272Z,100.00
2024-05-09T03:52:52.056Z,100.00
2024-05-09T03:53:53.813Z,100.00
2024-05-09T03:54:55.513Z,100.00
2024-05-09T03:55:57.301Z,100.00
2024-05-09T03:56:59.128Z,100.00
2024-05-09T03:58:00.911Z,100.00
2024-05-09T03:59:02.676Z,100.00
2024-05-09T04:00:07.434Z,100.00
2024-05-09T04:01:16.640Z,100.00
2024-05-09T04:02:18.553Z,100.00
2024-05-09T04:03:20.652Z,100.00
2024-05-09T04:04:22.717Z,100.00
2024-05-09T04:05:24.561Z,100.00
2024-05-09T04:06:26.804Z,100.00
2024-05-09T04:07:28.536Z,100.00
2024-05-09T04:08:30.286Z,100.00
2024-05-09T04:09:32.057Z,100.00
2024-05-09T04:10:35.042Z,100.00
2024-05-09T04:11:37.308Z,100.00
2024-05-09T04:12:39.241Z,100.00
2024-05-09T04:13:40.943Z,100.00
2024-05-09T04:14:42.802Z,100.00
2024-05-09T04:15:44.545Z,100.00
2024-05-09T04:16:46.387Z,100.00
2024-05-09T04:17:48.248Z,100.00
2024-05-09T04:18:50.506Z,100.00
2024-05-09T04:19:52.921Z,100.00
2024-05-09T04:20:54.725Z,100.00
2024-05-09T04:21:56.506Z,100.00
2024-05-09T04:22:58.259Z,100.00
2024-05-09T04:23:59.979Z,100.00
2024-05-09T04:25:01.755Z,100.00
2024-05-09T04:26:03.663Z,100.00
2024-05-09T04:27:05.481Z,100.00
2024-05-09T04:28:07.404Z,100.00
2024-05-09T04:29:09.195Z,100.00
2024-05-09T04:30:18.553Z,100.00
2024-05-09T04:31:23.532Z,100.00
2024-05-09T04:32:25.511Z,100.00
2024-05-09T04:33:27.563Z,100.00
2024-05-09T04:34:29.513Z,100.00
2024-05-09T04:35:31.443Z,100.00
2024-05-09T04:36:33.209Z,100.00
2024-05-09T04:37:34.905Z,100.00
2024-05-09T04:38:36.716Z,100.00
2024-05-09T04:39:38.506Z,100.00
2024-05-09T04:40:40.233Z,100.00
2024-05-09T04:41:41.898Z,100.00
2024-05-09T04:42:43.645Z,100.00
2024-05-09T04:43:45.347Z,100.00
2024-05-09T04:44:47.119Z,100.00
2024-05-09T04:45:48.952Z,100.00
2024-05-09T04:46:50.754Z,100.00
2024-05-09T04:47:53.965Z,100.00
2024-05-09T04:48:55.791Z,100.00
2024-05-09T04:49:57.491Z,100.00
2024-05-09T04:51:01.716Z,100.00
2024-05-09T04:52:03.548Z,100.00
2024-05-09T04:53:06.703Z,100.00
2024-05-09T04:54:15.764Z,100.00
2024-05-09T04:55:25.073Z,100.00
2024-05-09T04:56:26.857Z,100.00
2024-05-09T04:57:28.647Z,100.00
2024-05-09T04:58:30.414Z,100.00
2024-05-09T04:59:32.212Z,100.00
2024-05-09T05:00:36.876Z,100.00
2024-05-09T05:01:40.697Z,100.00
2024-05-09T05:02:42.581Z,100.00
2024-05-09T05:03:44.628Z,100.00
2024-05-09T05:04:46.591Z,100.00
2024-05-09T05:05:48.584Z,100.00
2024-05-09T05:06:50.332Z,100.00
2024-05-09T05:07:52.173Z,100.00
2024-05-09T05:08:53.930Z,100.00
2024-05-09T05:09:55.626Z,100.00
2024-05-09T05:10:57.458Z,100.00
2024-05-09T05:11:59.473Z,100.00
2024-05-09T05:13:01.267Z,100.00
2024-05-09T05:14:03.130Z,100.00
2024-05-09T05:15:05.183Z,100.00
2024-05-09T05:16:07.156Z,100.00
2024-05-09T05:17:09.022Z,100.00
2024-05-09T05:18:10.922Z,100.00
2024-05-09T05:19:16.009Z,100.00
2024-05-09T05:20:27.362Z,100.00
2024-05-09T05:21:34.722Z,99.99
2024-05-09T05:22:36.471Z,99.66
2024-05-09T05:23:38.348Z,99.29
2024-05-09T05:24:40.207Z,99.20
2024-05-09T05:25:42.478Z,99.09
2024-05-09T05:26:44.260Z,98.43
2024-05-09T05:27:46.079Z,97.35
2024-05-09T05:28:47.879Z,95.82
2024-05-09T05:29:49.721Z,94.21
2024-05-09T05:30:51.545Z,92.75
2024-05-09T05:31:53.475Z,92.09
2024-05-09T05:32:55.397Z,92.46
2024-05-09T05:33:57.423Z,91.37
2024-05-09T05:34:59.298Z,90.03
2024-05-09T05:36:00.967Z,88.24
2024-05-09T05:37:02.742Z,86.81
2024-05-09T05:38:07.310Z,86.15
2024-05-09T05:39:09.066Z,85.74
2024-05-09T05:40:14.636Z,83.12
2024-05-09T05:41:19.217Z,81.89
2024-05-09T05:42:21.008Z,80.73
2024-05-09T05:43:22.957Z,80.44
2024-05-09T05:44:24.699Z,80.05
2024-05-09T05:45:26.541Z,80.75
2024-05-09T05:46:28.279Z,81.49
2024-05-09T05:47:30.121Z,81.07
2024-05-09T05:48:32.170Z,81.34
2024-05-09T05:49:33.997Z,80.60
2024-05-09T05:50:37.919Z,80.77
2024-05-09T05:51:40.504Z,81.51
2024-05-09T05:52:42.244Z,80.74
2024-05-09T05:53:43.958Z,80.38
2024-05-09T05:54:45.731Z,79.46
2024-05-09T05:55:47.509Z,79.80
2024-05-09T05:56:49.248Z,79.29
2024-05-09T05:57:50.963Z,78.33
2024-05-09T05:58:52.818Z,78.53
2024-05-09T05:59:54.571Z,79.25
2024-05-09T06:00:56.373Z,79.34
2024-05-09T06:01:58.134Z,79.10
2024-05-09T06:03:01.015Z,80.16
2024-05-09T06:04:02.853Z,79.51
2024-05-09T06:05:05.123Z,79.23
2024-05-09T06:06:07.029Z,80.16
2024-05-09T06:07:08.836Z,80.71
2024-05-09T06:08:10.678Z,79.82
2024-05-09T06:09:12.455Z,80.50
2024-05-09T06:10:21.236Z,81.13
2024-05-09T06:11:27.247Z,81.47
2024-05-09T06:12:29.100Z,82.40
2024-05-09T06:13:30.819Z,83.06
2024-05-09T06:14:32.625Z,81.79
2024-05-09T06:15:34.573Z,83.35
2024-05-09T06:16:36.275Z,82.70
2024-05-09T06:17:38.102Z,82.87
2024-05-09T06:18:40.289Z,82.83
2024-05-09T06:19:42.217Z,82.13
2024-05-09T06:20:44.477Z,82.16
2024-05-09T06:21:46.328Z,83.30
2024-05-09T06:22:48.040Z,82.52
2024-05-09T06:23:50.039Z,82.75
2024-05-09T06:24:51.794Z,84.40
2024-05-09T06:25:53.571Z,83.13
2024-05-09T06:26:55.338Z,82.70
2024-05-09T06:27:57.055Z,83.93
2024-05-09T06:29:01.004Z,84.47
2024-05-09T06:30:02.993Z,85.78
2024-05-09T06:31:05.413Z,85.33
2024-05-09T06:32:07.431Z,84.31
2024-05-09T06:33:12.152Z,85.60
2024-05-09T06:34:18.543Z,86.34
2024-05-09T06:35:20.473Z,84.03
2024-05-09T06:36:22.176Z,83.19
2024-05-09T06:37:23.878Z,83.72
2024-05-09T06:38:26.360Z,83.07
2024-05-09T06:39:28.061Z,83.60
2024-05-09T06:40:37.132Z,82.03
2024-05-09T06:41:41.143Z,81.09
2024-05-09T06:42:42.920Z,80.96
2024-05-09T06:43:44.735Z,81.66
2024-05-09T06:44:46.503Z,81.06
2024-05-09T06:45:49.082Z,81.75
2024-05-09T06:46:51.165Z,80.85
2024-05-09T06:47:53.126Z,80.75
2024-05-09T06:48:56.314Z,80.39
2024-05-09T06:49:58.279Z,80.59
2024-05-09T06:51:00.059Z,79.95
2024-05-09T06:52:01.795Z,80.50
2024-05-09T06:53:03.799Z,82.22
2024-05-09T06:54:09.153Z,80.05
2024-05-09T06:55:10.825Z,80.72
2024-05-09T06:56:12.790Z,80.79
2024-05-09T06:57:14.559Z,81.34
2024-05-09T06:58:16.417Z,80.03
2024-05-09T06:59:18.251Z,79.95
2024-05-09T07:00:27.454Z,80.39
2024-05-09T07:01:36.601Z,80.60
2024-05-09T07:02:38.522Z,81.20
2024-05-09T07:03:41.713Z,82.13
2024-05-09T07:04:43.535Z,82.02
2024-05-09T07:05:46.964Z,80.74
2024-05-09T07:06:49.606Z,79.86
2024-05-09T07:07:51.381Z,79.48
2024-05-09T07:08:53.820Z,80.42
2024-05-09T07:09:55.652Z,80.31
2024-05-09T07:10:57.501Z,80.54
2024-05-09T07:11:59.511Z,79.68
2024-05-09T07:13:01.409Z,77.64
2024-05-09T07:14:03.152Z,78.55
2024-05-09T07:15:05.288Z,77.03
2024-05-09T07:16:07.157Z,77.99
2024-05-09T07:17:09.179Z,78.19
2024-05-09T07:18:12.450Z,78.26
2024-05-09T07:19:14.867Z,78.52
2024-05-09T07:20:23.533Z,79.28
2024-05-09T07:21:33.749Z,77.26
2024-05-09T07:22:35.506Z,76.45
2024-05-09T07:23:37.490Z,75.81
2024-05-09T07:24:39.228Z,75.06
2024-05-09T07:25:41.788Z,74.51
2024-05-09T07:26:43.798Z,74.47
2024-05-09T07:27:45.505Z,75.20
2024-05-09T07:28:47.336Z,77.79
2024-05-09T07:29:49.070Z,76.24
2024-05-09T07:30:50.892Z,75.81
2024-05-09T07:31:52.647Z,75.41
2024-05-09T07:32:54.472Z,74.67
2024-05-09T07:33:57.075Z,74.93
2024-05-09T07:34:58.902Z,75.34
2024-05-09T07:36:00.561Z,75.30
2024-05-09T07:37:02.638Z,77.56
2024-05-09T07:38:04.615Z,77.63
2024-05-09T07:39:06.318Z,78.02
2024-05-09T07:40:11.991Z,78.41
2024-05-09T07:41:13.843Z,76.72
2024-05-09T07:42:15.571Z,75.34
2024-05-09T07:43:17.302Z,76.03
2024-05-09T07:44:20.401Z,74.27
2024-05-09T07:45:41.649Z,77.40
2024-05-09T07:47:47.931Z,77.20
2024-05-09T07:50:54.585Z,74.44
2024-05-09T07:52:23.416Z,72.78
2024-05-09T07:53:21.870Z,72.89
2024-05-09T07:53:38.377Z,72.96
2024-05-09T07:54:40.892Z,73.38
2024-05-09T07:55:42.881Z,73.49
2024-05-09T07:56:44.942Z,74.55
2024-05-09T07:57:46.913Z,75.47
2024-05-09T07:58:50.171Z,75.23
2024-05-09T07:59:51.886Z,74.58
2024-05-09T08:00:54.403Z,75.08
2024-05-09T08:01:56.368Z,75.09
2024-05-09T08:02:58.156Z,75.53
2024-05-09T08:03:59.951Z,72.09
2024-05-09T08:05:01.857Z,71.71
2024-05-09T08:06:03.895Z,69.14
2024-05-09T08:07:05.675Z,67.66
2024-05-09T08:08:07.625Z,69.60
2024-05-09T08:09:13.887Z,71.61
2024-05-09T08:10:24.539Z,69.75
2024-05-09T08:11:29.086Z,68.66
2024-05-09T08:12:30.950Z,68.83
2024-05-09T08:13:32.613Z,67.82
2024-05-09T08:14:34.391Z,69.14
2024-05-09T08:15:36.131Z,68.79
2024-05-09T08:16:37.921Z,68.74
2024-05-09T08:17:39.755Z,71.11
2024-05-09T08:18:41.669Z,69.05
2024-05-09T08:19:43.619Z,68.60
2024-05-09T08:20:48.496Z,68.02
2024-05-09T08:21:50.231Z,69.59
2024-05-09T08:22:51.990Z,70.54
2024-05-09T08:23:53.733Z,71.50
2024-05-09T08:24:55.405Z,72.88
2024-05-09T08:25:57.101Z,72.67
2024-05-09T08:26:58.815Z,70.40
2024-05-09T08:28:00.681Z,70.20
2024-05-09T08:29:02.962Z,69.19
2024-05-09T08:30:06.330Z,71.31
2024-05-09T08:31:09.811Z,72.54
2024-05-09T08:32:11.637Z,71.50
2024-05-09T08:33:13.477Z,71.92
2024-05-09T08:34:15.460Z,73.11
2024-05-09T08:35:17.442Z,70.13
2024-05-09T08:36:19.165Z,69.25
2024-05-09T08:37:23.482Z,70.70
2024-05-09T08:38:27.767Z,71.24
2024-05-09T08:39:29.586Z,69.91
2024-05-09T08:40:35.410Z,69.50
2024-05-09T08:41:42.658Z,69.92
2024-05-09T08:42:51.869Z,68.88
2024-05-09T08:43:54.116Z,67.56
2024-05-09T08:44:56.483Z,69.12
2024-05-09T08:45:59.560Z,66.19
2024-05-09T08:47:02.797Z,65.53
2024-05-09T08:48:08.359Z,66.18
2024-05-09T08:49:10.972Z,65.79
2024-05-09T08:50:28.587Z,67.32
2024-05-09T08:51:37.651Z,67.90
2024-05-09T08:52:39.421Z,67.62
2024-05-09T08:53:41.151Z,67.64
2024-05-09T08:54:42.997Z,64.10
2024-05-09T08:55:46.502Z,64.12
2024-05-09T08:56:49.327Z,64.82
2024-05-09T08:57:52.344Z,65.44
2024-05-09T08:59:01.160Z,68.08
2024-05-09T09:00:09.937Z,64.25
2024-05-09T09:01:14.810Z,62.34
2024-05-09T09:02:18.189Z,61.86
2024-05-09T09:03:24.863Z,60.92
2024-05-09T09:04:28.883Z,61.09
2024-05-09T09:05:31.671Z,64.26
2024-05-09T09:06:35.547Z,63.28
2024-05-09T09:07:40.382Z,64.60
2024-05-09T09:08:42.391Z,63.39
2024-05-09T09:09:45.719Z,63.84
2024-05-09T09:10:48.200Z,63.51
2024-05-09T09:11:50.282Z,63.57
2024-05-09T09:12:55.663Z,62.94
2024-05-09T09:13:57.463Z,59.59
2024-05-09T09:14:59.364Z,58.83
2024-05-09T09:16:01.188Z,58.89
2024-05-09T09:17:13.123Z,57.33
2024-05-09T09:18:18.578Z,58.31
2024-05-09T09:19:23.411Z,61.33
2024-05-09T09:20:35.610Z,61.61
2024-05-09T09:21:38.705Z,59.79
2024-05-09T09:22:40.452Z,57.73
2024-05-09T09:23:43.276Z,58.53
2024-05-09T09:24:45.659Z,58.99
2024-05-09T09:25:47.530Z,59.82
2024-05-09T09:26:49.291Z,58.96
2024-05-09T09:27:51.403Z,60.32
2024-05-09T09:28:53.387Z,60.62
2024-05-09T09:29:56.817Z,60.37
2024-05-09T09:31:02.476Z,58.72
2024-05-09T09:32:05.056Z,59.75
2024-05-09T09:33:08.667Z,58.12
2024-05-09T09:34:10.676Z,59.20
2024-05-09T09:35:12.600Z,59.85
2024-05-09T09:36:14.419Z,60.33
2024-05-09T09:37:22.139Z,60.48
2024-05-09T09:38:23.948Z,61.91
2024-05-09T09:39:27.934Z,63.09
2024-05-09T09:40:37.259Z,61.70
2024-05-09T09:41:46.369Z,62.98
2024-05-09T09:42:57.661Z,61.06
2024-05-09T09:44:00.945Z,60.45
2024-05-09T09:45:05.556Z,62.02
2024-05-09T09:46:12.251Z,59.35
2024-05-09T09:47:16.519Z,60.93
2024-05-09T09:48:21.217Z,58.47
2024-05-09T09:49:27.480Z,57.53
2024-05-09T09:50:34.326Z,57.72
2024-05-09T09:51:37.851Z,59.01
2024-05-09T09:52:39.708Z,57.91
2024-05-09T09:53:43.600Z,56.73
2024-05-09T09:54:46.117Z,55.65
2024-05-09T09:55:48.581Z,59.85
2024-05-09T09:56:51.468Z,61.47
2024-05-09T09:57:56.157Z,60.31
2024-05-09T09:58:59.388Z,60.04
2024-05-09T10:00:01.252Z,59.93
2024-05-09T10:01:03.030Z,58.07
2024-05-09T10:02:05.366Z,56.09
2024-05-09T10:03:07.256Z,54.11
2024-05-09T10:04:10.365Z,53.16
2024-05-09T10:05:12.395Z,52.99
2024-05-09T10:06:15.397Z,53.80
2024-05-09T10:07:20.442Z,53.93
2024-05-09T10:08:23.848Z,54.92
2024-05-09T10:09:26.375Z,53.51
2024-05-09T10:10:33.228Z,52.57
2024-05-09T10:11:41.941Z,51.58
2024-05-09T10:13:08.486Z,55.82
2024-05-09T10:14:10.519Z,52.00
2024-05-09T10:15:12.290Z,51.30
2024-05-09T10:16:20.830Z,52.84
2024-05-09T10:17:22.649Z,52.84
2024-05-09T10:18:26.100Z,53.30
2024-05-09T10:19:30.169Z,53.24
2024-05-09T10:20:44.987Z,52.07
2024-05-09T10:21:46.997Z,52.01
2024-05-09T10:22:49.355Z,52.11
2024-05-09T10:24:03.246Z,52.71
2024-05-09T10:25:07.286Z,53.00
2024-05-09T10:26:09.051Z,51.34
2024-05-09T10:27:10.798Z,50.89
2024-05-09T10:28:12.862Z,52.13
2024-05-09T10:29:19.242Z,50.67
2024-05-09T10:30:29.647Z,51.06
2024-05-09T10:31:41.037Z,51.00
2024-05-09T10:32:44.795Z,50.28
2024-05-09T10:33:52.345Z,49.88
2024-05-09T10:35:13.347Z,48.78
2024-05-09T10:36:21.666Z,48.53
2024-05-09T10:37:25.227Z,47.95
2024-05-09T10:38:27.161Z,49.06
2024-05-09T10:39:35.171Z,50.55
2024-05-09T10:40:38.114Z,52.02
2024-05-09T10:41:39.929Z,51.67
2024-05-09T10:42:41.865Z,53.02
2024-05-09T10:43:43.720Z,53.66
2024-05-09T10:44:45.464Z,53.46
2024-05-09T10:45:47.693Z,52.60
2024-05-09T10:46:49.940Z,51.24
2024-05-09T10:47:51.952Z,52.11
2024-05-09T10:48:54.263Z,50.53
2024-05-09T10:49:56.966Z,50.71
2024-05-09T10:50:58.927Z,51.95
2024-05-09T10:52:03.805Z,53.37
2024-05-09T10:53:05.595Z,52.21
2024-05-09T10:54:07.309Z,52.29
2024-05-09T10:55:09.098Z,51.33
2024-05-09T10:56:14.015Z,51.28
2024-05-09T10:57:16.076Z,50.63
2024-05-09T10:58:18.272Z,50.21
2024-05-09T10:59:20.021Z,50.12
2024-05-09T11:00:27.754Z,50.97
2024-05-09T11:01:35.520Z,48.96
2024-05-09T11:02:37.608Z,48.45
2024-05-09T11:03:40.133Z,48.75
2024-05-09T11:04:42.492Z,48.90
2024-05-09T11:05:45.872Z,50.04
2024-05-09T11:06:47.916Z,49.07
2024-05-09T11:07:50.318Z,48.58
2024-05-09T11:08:52.475Z,49.10
2024-05-09T11:09:54.532Z,48.71
2024-05-09T11:10:56.496Z,49.21
2024-05-09T11:11:58.643Z,49.37
2024-05-09T11:13:00.550Z,50.94
2024-05-09T11:14:13.814Z,51.13
2024-05-09T11:15:15.531Z,49.18
2024-05-09T11:16:19.121Z,49.68
2024-05-09T11:17:21.313Z,49.23
2024-05-09T11:18:26.441Z,48.77
2024-05-09T11:19:39.275Z,48.57
2024-05-09T11:20:41.242Z,50.98
2024-05-09T11:21:51.115Z,50.59
2024-05-09T11:22:53.007Z,48.84
2024-05-09T11:23:55.106Z,49.50
2024-05-09T11:24:56.962Z,48.66
2024-05-09T11:25:59.332Z,48.76
2024-05-09T11:27:03.951Z,48.03
2024-05-09T11:28:07.716Z,47.15
2024-05-09T11:29:09.475Z,46.29
2024-05-09T11:30:26.687Z,46.18
2024-05-09T11:31:33.546Z,46.52
2024-05-09T11:32:37.613Z,46.98
2024-05-09T11:33:43.546Z,46.94
2024-05-09T11:34:45.351Z,46.96
2024-05-09T11:35:47.223Z,46.70
2024-05-09T11:36:49.005Z,46.91
2024-05-09T11:37:50.883Z,47.47
2024-05-09T11:38:52.679Z,46.68
2024-05-09T11:39:54.468Z,48.58
2024-05-09T11:40:56.311Z,46.92
2024-05-09T11:41:58.254Z,47.33
2024-05-09T11:42:59.960Z,47.67
2024-05-09T11:44:02.075Z,49.24
2024-05-09T11:45:04.116Z,49.23
2024-05-09T11:46:06.107Z,48.71
2024-05-09T11:47:07.947Z,49.21
2024-05-09T11:48:09.863Z,49.62
2024-05-09T11:49:11.858Z,47.59
2024-05-09T11:50:22.461Z,46.23
2024-05-09T11:51:29.198Z,45.92
2024-05-09T11:52:30.948Z,48.12
2024-05-09T11:53:32.645Z,49.46
2024-05-09T11:54:34.388Z,49.39
2024-05-09T11:55:36.241Z,48.19
2024-05-09T11:56:38.147Z,48.59
2024-05-09T11:57:39.981Z,51.07
2024-05-09T11:58:41.758Z,49.59
2024-05-09T11:59:43.594Z,49.03
2024-05-09T12:00:45.584Z,48.13
2024-05-09T12:01:47.615Z,46.24
2024-05-09T12:02:49.385Z,45.34
2024-05-09T12:03:51.209Z,45.38
2024-05-09T12:04:53.153Z,46.46
2024-05-09T12:05:55.190Z,46.08
2024-05-09T12:06:57.076Z,46.48
2024-05-09T12:07:58.891Z,45.72
2024-05-09T12:09:00.748Z,45.56
2024-05-09T12:10:03.486Z,47.04
2024-05-09T12:11:06.515Z,47.03
2024-05-09T12:12:08.301Z,47.01
2024-05-09T12:13:10.384Z,46.81
2024-05-09T12:14:12.148Z,46.62
2024-05-09T12:15:14.017Z,45.12
2024-05-09T12:16:16.169Z,44.04
2024-05-09T12:17:18.126Z,43.58
2024-05-09T12:18:19.941Z,43.16
2024-05-09T12:19:21.682Z,43.59
2024-05-09T12:20:32.168Z,45.25
2024-05-09T12:21:37.818Z,45.07
2024-05-09T12:22:39.490Z,43.52
2024-05-09T12:23:41.146Z,42.97
2024-05-09T12:24:42.943Z,43.22
2024-05-09T12:25:44.794Z,43.90
2024-05-09T12:26:46.790Z,45.43
2024-05-09T12:27:48.560Z,46.35
2024-05-09T12:28:50.260Z,47.71
2024-05-09T12:29:52.021Z,47.66
2024-05-09T12:30:53.826Z,47.36
2024-05-09T12:31:55.667Z,47.39
2024-05-09T12:32:57.529Z,46.70
2024-05-09T12:33:59.316Z,45.63
2024-05-09T12:35:01.105Z,45.08
2024-05-09T12:36:02.915Z,44.76
2024-05-09T12:37:05.045Z,45.36
2024-05-09T12:38:06.771Z,46.52
2024-05-09T12:39:11.719Z,44.66
2024-05-09T12:40:22.477Z,44.57
2024-05-09T12:41:28.461Z,44.78
2024-05-09T12:42:32.524Z,44.08
2024-05-09T12:43:35.039Z,44.13
2024-05-09T12:44:36.801Z,43.49
2024-05-09T12:45:39.288Z,43.42
2024-05-09T12:46:41.332Z,43.97
2024-05-09T12:47:43.052Z,44.66
2024-05-09T12:48:45.115Z,46.05
2024-05-09T12:49:47.129Z,46.60
2024-05-09T12:50:49.131Z,45.42
2024-05-09T12:51:50.933Z,45.66
2024-05-09T12:52:52.645Z,44.37
2024-05-09T12:53:54.364Z,44.29
2024-05-09T12:54:56.122Z,45.44
2024-05-09T12:56:02.207Z,46.37
2024-05-09T12:57:05.445Z,45.84
2024-05-09T12:58:08.104Z,46.37
2024-05-09T12:59:10.054Z,45.86
2024-05-09T13:00:20.684Z,45.51
2024-05-09T13:01:29.545Z,45.91
2024-05-09T13:02:31.485Z,46.34
2024-05-09T13:03:33.546Z,45.55
2024-05-09T13:04:35.522Z,45.80
2024-05-09T13:05:37.458Z,44.45
2024-05-09T13:06:39.315Z,45.56
2024-05-09T13:07:41.236Z,45.32
2024-05-09T13:08:42.993Z,44.98
2024-05-09T13:09:44.804Z,45.35
2024-05-09T13:10:46.738Z,45.52
2024-05-09T13:11:48.587Z,47.20
2024-05-09T13:12:50.389Z,46.56
2024-05-09T13:13:52.147Z,46.48
2024-05-09T13:14:53.839Z,45.40
2024-05-09T13:15:55.699Z,45.41
2024-05-09T13:16:57.564Z,47.22
2024-05-09T13:18:02.312Z,46.81
2024-05-09T13:19:05.217Z,47.26
2024-05-09T13:20:11.977Z,46.82
2024-05-09T13:21:20.165Z,44.89
2024-05-09T13:22:21.976Z,45.44
2024-05-09T13:23:23.721Z,44.61
2024-05-09T13:24:25.412Z,44.54
2024-05-09T13:25:27.187Z,44.29
2024-05-09T13:26:29.078Z,44.82
2024-05-09T13:27:30.878Z,46.53
2024-05-09T13:28:32.887Z,44.88